createdAt,value
2023-01-28T00:04:03.093Z,28.23
2023-01-28T00:06:38.095Z,30.23
2023-01-28T00:09:12.241Z,30.05
2023-01-28T00:11:47.581Z,26.12
2023-01-28T00:14:22.235Z,34.63
2023-01-28T00:16:56.831Z,31.68
2023-01-28T00:22:04.700Z,32.40
2023-01-28T00:24:38.598Z,31.93
2023-01-28T00:29:45.531Z,26.97
2023-01-28T00:32:19.286Z,32.10
2023-01-28T00:37:26.120Z,28.10
2023-01-28T00:40:00.365Z,29.12
2023-01-28T00:42:35.630Z,26.05
2023-01-28T00:45:10.549Z,35.20
2023-01-28T00:47:45.549Z,31.10
2023-01-28T00:50:20.633Z,40.38
2023-01-28T00:52:54.979Z,55.43
2023-01-28T00:55:28.722Z,57.98
2023-01-28T01:00:36.798Z,36.68
2023-01-28T01:03:10.936Z,32.75
2023-01-28T01:08:18.243Z,35.52
2023-01-28T01:10:51.967Z,45.88
2023-01-28T01:13:25.883Z,42.83
2023-01-28T01:16:12.308Z,39.40
2023-01-28T01:18:46.320Z,48.70
2023-01-28T01:21:23.722Z,50.65
2023-01-28T01:23:58.147Z,50.17
2023-01-28T01:26:32.111Z,66.50
2023-01-28T01:29:05.814Z,49.85
2023-01-28T01:31:41.167Z,53.75
2023-01-28T01:34:15.139Z,42.65
2023-01-28T01:39:21.793Z,51.63
2023-01-28T01:41:55.566Z,38.25
2023-01-28T01:44:59.961Z,48.30
2023-01-28T01:47:58.766Z,37.15
2023-01-28T01:50:42.945Z,42.70
2023-01-28T01:53:19.439Z,40.43
2023-01-28T01:55:57.268Z,38.10
2023-01-28T01:58:34.890Z,39.00
2023-01-28T02:01:09.840Z,38.40
2023-01-28T02:03:54.482Z,35.45
2023-01-28T02:06:28.792Z,37.17
2023-01-28T02:09:03.795Z,40.85
2023-01-28T02:11:39.606Z,33.55
2023-01-28T02:14:22.391Z,42.27
2023-01-28T02:16:49.191Z,38.20
2023-01-28T02:19:25.273Z,34.05
2023-01-28T02:22:30.720Z,26.33
2023-01-28T02:25:36.594Z,28.65
2023-01-28T02:28:40.492Z,37.50
2023-01-28T02:31:21.211Z,35.70
2023-01-28T02:34:02.552Z,40.88
2023-01-28T02:36:54.634Z,28.15
2023-01-28T02:39:33.959Z,33.42
2023-01-28T02:42:18.409Z,26.40
2023-01-28T02:44:52.330Z,24.85
2023-01-28T02:47:45.202Z,27.30
2023-01-28T02:50:20.581Z,31.52
2023-01-28T02:53:44.385Z,30.82
2023-01-28T02:56:25.081Z,30.95
2023-01-28T02:59:14.232Z,34.90
2023-01-28T03:01:48.894Z,33.30
2023-01-28T03:04:51.745Z,34.25
2023-01-28T03:07:28.801Z,44.85
2023-01-28T03:10:06.714Z,60.12
2023-01-28T03:13:01.049Z,49.83
2023-01-28T03:16:02.750Z,52.10
2023-01-28T03:19:09.906Z,58.28
2023-01-28T03:22:03.030Z,58.80
2023-01-28T03:24:59.911Z,46.73
2023-01-28T03:28:05.828Z,46.28
2023-01-28T03:31:07.334Z,34.63
2023-01-28T03:34:02.642Z,44.25
2023-01-28T03:36:52.067Z,42.17
2023-01-28T03:39:31.909Z,51.48
2023-01-28T03:42:13.881Z,49.05
2023-01-28T03:44:52.903Z,43.50
2023-01-28T03:47:34.396Z,46.15
2023-01-28T03:50:11.591Z,40.40
2023-01-28T03:52:58.243Z,43.85
2023-01-28T03:55:33.990Z,42.25
2023-01-28T03:58:08.477Z,48.45
2023-01-28T04:03:20.715Z,53.68
2023-01-28T04:06:06.536Z,45.35
2023-01-28T04:08:53.298Z,47.35
2023-01-28T04:11:40.864Z,45.83
2023-01-28T04:14:16.395Z,64.53
2023-01-28T04:16:52.574Z,43.25
2023-01-28T04:19:28.335Z,48.45
2023-01-28T04:22:02.644Z,47.98
2023-01-28T04:24:36.708Z,50.28
2023-01-28T04:27:11.204Z,44.08
2023-01-28T04:29:45.335Z,43.78
2023-01-28T04:32:30.566Z,45.25
2023-01-28T04:35:09.441Z,43.63
2023-01-28T04:37:54.105Z,50.40
2023-01-28T04:40:46.586Z,55.00
2023-01-28T04:43:22.775Z,47.67
2023-01-28T04:45:59.099Z,56.30
2023-01-28T04:48:37.558Z,44.45
2023-01-28T04:51:28.683Z,47.50
2023-01-28T04:54:20.638Z,55.20
2023-01-28T04:56:56.580Z,35.38
2023-01-28T04:59:30.741Z,45.73
2023-01-28T05:02:05.495Z,71.77
2023-01-28T05:04:39.381Z,104.55
2023-01-28T05:07:14.593Z,85.75
2023-01-28T05:09:48.900Z,63.52
2023-01-28T05:12:23.882Z,36.93
2023-01-28T05:14:58.054Z,40.92
2023-01-28T05:17:32.730Z,48.42
2023-01-28T05:20:07.665Z,41.75
2023-01-28T05:22:42.511Z,31.05
2023-01-28T05:25:18.373Z,37.25
2023-01-28T05:27:55.776Z,44.50
2023-01-28T05:30:29.864Z,43.78
2023-01-28T05:33:04.173Z,44.23
2023-01-28T05:35:38.426Z,36.60
2023-01-28T05:38:14.933Z,40.67
2023-01-28T05:40:49.859Z,40.63
2023-01-28T05:43:23.757Z,42.13
2023-01-28T05:46:15.314Z,40.05
2023-01-28T05:49:08.877Z,44.18
2023-01-28T05:52:01.899Z,66.90
2023-01-28T05:54:38.174Z,40.43
2023-01-28T05:57:13.116Z,35.78
2023-01-28T05:59:46.843Z,43.38
2023-01-28T06:02:21.061Z,47.80
2023-01-28T06:04:56.408Z,41.25
2023-01-28T06:07:30.216Z,48.83
2023-01-28T06:12:37.233Z,53.02
2023-01-28T06:15:29.266Z,58.87
2023-01-28T06:18:07.672Z,58.10
2023-01-28T06:20:42.920Z,48.55
2023-01-28T06:23:17.073Z,35.90
2023-01-28T06:30:58.908Z,32.15
2023-01-28T06:33:32.765Z,35.92
2023-01-28T06:36:08.323Z,28.07
2023-01-28T06:38:42.241Z,35.28
2023-01-28T06:41:15.971Z,26.35
2023-01-28T06:43:49.986Z,31.20
2023-01-28T06:46:25.099Z,36.80
2023-01-28T06:48:59.047Z,45.65
2023-01-28T06:51:34.739Z,45.95
2023-01-28T06:54:09.428Z,31.42
2023-01-28T06:56:43.470Z,39.15
2023-01-28T06:59:18.078Z,38.65
2023-01-28T07:01:52.676Z,53.00
2023-01-28T07:06:59.987Z,62.75
2023-01-28T07:09:34.165Z,30.65
2023-01-28T07:12:08.703Z,54.08
2023-01-28T07:14:44.046Z,30.57
2023-01-28T07:17:18.649Z,34.55
2023-01-28T07:19:53.472Z,27.62
2023-01-28T07:22:27.918Z,22.45
2023-01-28T07:25:02.626Z,28.15
2023-01-28T07:27:36.656Z,25.27
2023-01-28T07:30:13.408Z,27.87
2023-01-28T07:32:47.613Z,28.30
2023-01-28T07:35:21.485Z,28.70
2023-01-28T07:38:02.876Z,26.70
2023-01-28T07:40:36.730Z,25.65
2023-01-28T07:43:11.279Z,30.62
2023-01-28T07:45:48.567Z,22.20
2023-01-28T07:48:22.551Z,28.73
2023-01-28T07:50:59.528Z,33.65
2023-01-28T07:53:34.075Z,30.72
2023-01-28T07:56:08.291Z,32.53
2023-01-28T07:58:42.275Z,32.00
2023-01-28T08:01:45.209Z,37.58
2023-01-28T08:04:19.483Z,31.90
2023-01-28T08:06:54.097Z,36.80
2023-01-28T08:09:28.058Z,38.67
2023-01-28T12:12:05.402Z,58.58
2023-01-28T12:15:12.010Z,47.95
2023-01-28T12:17:55.350Z,38.50
2023-01-28T12:20:49.713Z,31.80
2023-01-28T12:24:11.548Z,38.28
2023-01-28T12:27:17.893Z,50.88
2023-01-28T12:30:17.107Z,45.92
2023-01-28T12:33:06.673Z,44.83
2023-01-28T12:36:14.146Z,53.58
2023-01-28T12:39:06.499Z,38.85
2023-01-28T12:41:46.626Z,54.08
2023-01-28T12:44:29.990Z,42.40
2023-01-28T12:47:10.423Z,48.35
2023-01-28T12:49:53.847Z,53.90
2023-01-28T12:52:37.490Z,40.43
2023-01-28T12:55:45.581Z,48.10
2023-01-28T12:58:25.438Z,45.23
2023-01-28T13:01:02.798Z,45.73
2023-01-28T13:04:07.500Z,50.83
2023-01-28T13:06:53.746Z,42.93
2023-01-28T13:09:28.401Z,49.48
2023-01-28T13:12:02.243Z,51.48
2023-01-28T13:14:36.553Z,55.92
2023-01-28T13:17:14.999Z,63.68
2023-01-28T13:19:48.257Z,50.15
2023-01-28T13:22:37.155Z,75.15
2023-01-28T13:25:27.440Z,52.55
2023-01-28T13:28:06.986Z,46.85
2023-01-28T13:30:50.086Z,42.43
2023-01-28T13:33:36.531Z,49.13
2023-01-28T13:36:47.330Z,40.92
2023-01-28T13:39:23.715Z,50.60
2023-01-28T13:42:17.369Z,41.65
2023-01-28T13:44:50.538Z,38.48
2023-01-28T13:47:35.714Z,38.65
2023-01-28T13:50:16.343Z,39.60
2023-01-28T13:53:16.359Z,55.33
2023-01-28T13:55:50.133Z,43.00
2023-01-28T13:58:49.312Z,46.95
2023-01-28T14:01:57.009Z,37.83
2023-01-28T14:04:59.881Z,47.15
2023-01-28T14:07:52.430Z,43.78
2023-01-28T14:10:38.720Z,44.80
2023-01-28T14:13:20.031Z,39.58
2023-01-28T14:16:12.892Z,58.65
2023-01-28T14:18:47.097Z,44.03
2023-01-28T14:21:22.368Z,39.60
2023-01-28T14:23:57.935Z,46.02
2023-01-28T14:27:00.442Z,62.08
2023-01-28T14:29:44.400Z,70.22
2023-01-28T14:32:32.687Z,75.97
2023-01-28T14:35:10.845Z,70.50
2023-01-28T14:37:44.012Z,74.25
2023-01-28T14:40:18.983Z,83.23
2023-01-28T14:42:56.270Z,75.03
2023-01-28T14:46:07.695Z,90.25
2023-01-28T14:48:54.307Z,81.72
2023-01-28T14:52:00.306Z,73.22
2023-01-28T14:55:02.011Z,81.20
2023-01-28T14:57:50.154Z,104.10
2023-01-28T15:00:27.713Z,79.90
2023-01-28T15:03:01.853Z,115.20
2023-01-28T15:05:35.297Z,85.07
2023-01-28T15:08:08.854Z,94.00
2023-01-28T15:10:46.251Z,104.38
2023-01-28T15:13:32.231Z,137.88
2023-01-28T18:45:23.401Z,53.90
2023-01-28T18:47:56.801Z,50.52
2023-01-28T18:50:30.583Z,58.85
2023-01-28T18:53:04.627Z,106.52
2023-01-28T18:58:10.324Z,121.20
2023-01-28T19:00:44.166Z,229.00
2023-01-28T19:03:17.091Z,113.72
2023-01-28T19:05:49.939Z,109.20
2023-01-28T19:08:23.733Z,134.43
2023-01-28T19:10:58.573Z,79.07
2023-01-28T19:13:31.910Z,125.82
2023-01-28T19:16:06.469Z,91.25
2023-01-28T19:18:39.753Z,66.33
2023-01-28T19:21:12.704Z,94.32
2023-01-28T19:23:50.184Z,105.07
2023-01-28T19:26:22.170Z,89.72
2023-01-28T19:28:56.517Z,78.70
2023-01-28T19:31:30.197Z,93.37
2023-01-28T19:34:04.044Z,69.42
2023-01-28T19:39:10.224Z,53.78
2023-01-28T19:41:43.337Z,64.25
2023-01-28T19:44:16.271Z,55.70
2023-01-28T19:46:52.912Z,38.75
2023-01-28T19:49:27.653Z,36.25
2023-01-28T19:52:00.928Z,46.68
2023-01-28T19:54:34.216Z,48.05
2023-01-28T19:57:07.891Z,35.33
2023-01-28T19:59:41.551Z,39.25
2023-01-28T20:02:14.470Z,32.95
2023-01-28T20:05:00.046Z,35.10
2023-01-28T20:07:22.704Z,33.00
2023-01-28T20:09:56.383Z,33.83
2023-01-28T20:12:30.019Z,31.95
2023-01-28T20:15:03.223Z,33.65
2023-01-28T20:17:36.888Z,28.10
2023-01-28T20:20:11.608Z,33.65
2023-01-28T20:22:45.276Z,26.40
2023-01-28T20:25:19.528Z,31.57
2023-01-28T20:27:52.688Z,28.73
2023-01-28T20:30:27.273Z,29.18
2023-01-28T20:33:00.664Z,30.68
2023-01-28T20:35:33.728Z,34.25
2023-01-28T20:38:07.698Z,44.40
2023-01-28T20:40:42.549Z,39.33
2023-01-28T20:43:16.028Z,46.63
2023-01-28T20:45:49.086Z,26.70
2023-01-28T20:48:22.922Z,32.05
2023-01-28T20:50:56.440Z,30.00
2023-01-28T20:53:29.714Z,38.47
2023-01-28T20:56:03.108Z,30.00
2023-01-28T20:58:36.058Z,34.35
2023-01-28T21:01:09.129Z,29.20
2023-01-28T21:03:42.275Z,28.32
2023-01-28T21:06:15.827Z,35.73
2023-01-28T21:08:49.544Z,33.15
2023-01-28T21:11:24.232Z,38.95
2023-01-28T21:13:57.907Z,37.48
2023-01-28T21:16:31.199Z,38.48
2023-01-28T21:19:04.179Z,36.70
2023-01-28T21:21:38.112Z,35.00
2023-01-28T21:24:12.249Z,32.88
2023-01-28T21:26:45.267Z,33.98
2023-01-28T21:29:19.149Z,25.02
2023-01-28T21:31:52.282Z,29.60
2023-01-28T21:34:26.295Z,32.58
2023-01-28T21:36:59.339Z,29.25
2023-01-28T21:39:33.894Z,33.45
2023-01-28T21:42:07.068Z,42.73
2023-01-28T21:44:40.074Z,44.15
2023-01-28T21:47:14.045Z,39.65
2023-01-28T21:49:47.993Z,41.88
2023-01-28T21:52:22.503Z,44.25
2023-01-28T21:54:55.538Z,37.88
2023-01-28T21:57:29.189Z,37.10
2023-01-28T22:00:02.527Z,48.47
2023-01-28T22:02:37.784Z,53.78
2023-01-28T22:05:11.242Z,62.60
2023-01-28T22:07:44.281Z,60.78
2023-01-28T22:10:19.055Z,41.77
2023-01-28T22:12:53.947Z,34.75
2023-01-28T22:15:27.491Z,36.35
2023-01-28T22:18:01.221Z,37.28
2023-01-28T22:20:35.582Z,34.73
2023-01-28T22:23:08.803Z,33.97
2023-01-28T22:25:42.709Z,28.67
2023-01-28T22:28:16.126Z,32.60
2023-01-28T22:30:49.705Z,31.25
2023-01-28T22:33:22.787Z,29.70
2023-01-28T22:35:56.012Z,27.45
2023-01-28T22:38:29.156Z,35.63
2023-01-28T22:41:14.907Z,28.62
2023-01-28T22:43:49.137Z,35.45
2023-01-28T22:46:25.713Z,32.85
2023-01-28T22:48:58.852Z,34.23
2023-01-28T22:51:35.400Z,40.88
2023-01-28T22:54:09.303Z,43.60
2023-01-28T22:56:42.393Z,33.35
2023-01-28T22:59:16.017Z,33.95
2023-01-28T23:01:49.264Z,38.58
2023-01-28T23:04:22.307Z,30.40
2023-01-28T23:06:55.262Z,35.05
2023-01-28T23:09:28.500Z,43.48
2023-01-28T23:12:01.540Z,29.87
2023-01-28T23:14:52.970Z,27.93
2023-01-28T23:17:44.029Z,29.07
2023-01-28T23:20:35.681Z,31.00
2023-01-28T23:23:29.790Z,31.45
2023-01-28T23:26:02.882Z,37.33
2023-01-28T23:28:35.843Z,32.93
2023-01-28T23:31:09.015Z,30.88
2023-01-28T23:33:42.187Z,39.90
2023-01-28T23:36:15.406Z,36.68
2023-01-28T23:38:48.489Z,32.33
2023-01-28T23:41:21.618Z,36.35
2023-01-28T23:43:54.597Z,48.30
2023-01-28T23:46:38.901Z,33.53
2023-01-28T23:49:03.335Z,34.98
2023-01-28T23:51:36.814Z,40.58
2023-01-28T23:54:09.909Z,34.15
2023-01-28T23:56:42.840Z,41.42
2023-01-28T23:59:15.795Z,40.40
